Time;durP1;ratioP1;P1;durP2;ratioP2;P2;SDS_P1;SDS_P2;PMS_P1;PMS_P2;Temp;Humidity;BMP_temperature;BMP_pressure;BME280_temperature;BME280_humidity;BME280_pressure;Samples;Min_cycle;Max_cycle;Signal;HPM_P1;HPM_P2
2023/10/09 07:59:10;;;;;;;8.00;3.63;;;19.30;99.90;;;;;;4949854;23;20442;-74
2023/10/09 08:01:37;;;;;;;6.10;3.10;;;19.80;99.90;;;;;;4935155;29;20670;-73
2023/10/09 08:04:10;;;;;;;6.68;3.78;;;20.30;99.90;;;;;;4935267;29;20204;-74
2023/10/09 08:06:42;;;;;;;8.63;3.67;;;20.50;99.90;;;;;;4944745;29;20671;-74
2023/10/09 08:09:38;;;;;;;7.18;3.80;;;20.70;99.90;;;;;;4952172;28;20208;-73
2023/10/09 08:12:38;;;;;;;8.70;4.20;;;20.70;99.90;;;;;;4954010;28;20200;-74
2023/10/09 08:15:25;;;;;;;8.68;3.75;;;20.60;99.90;;;;;;4953521;28;20231;-73
2023/10/09 08:17:53;;;;;;;7.60;3.90;;;20.50;99.90;;;;;;4954298;29;20235;-73
2023/10/09 08:20:24;;;;;;;9.60;3.85;;;20.30;99.90;;;;;;4954337;28;20299;-73
2023/10/09 08:22:52;;;;;;;7.13;3.20;;;20.10;99.90;;;;;;4954511;28;20211;-73
2023/10/09 08:25:31;;;;;;;9.25;3.95;;;20.00;99.90;;;;;;4953697;28;20224;-73
2023/10/09 08:28:38;;;;;;;8.85;4.05;;;19.90;99.90;;;;;;4954458;28;20211;-72
2023/10/09 08:31:02;;;;;;;7.53;3.70;;;19.70;99.90;;;;;;4934802;29;20260;-73
2023/10/09 08:33:40;;;;;;;9.65;4.50;;;19.70;99.90;;;;;;4939977;28;20200;-73
2023/10/09 08:36:09;;;;;;;8.40;3.72;;;19.60;99.90;;;;;;4954222;28;20773;-73
2023/10/09 08:38:36;;;;;;;7.15;3.85;;;19.60;99.90;;;;;;4954948;29;20204;-73
2023/10/09 08:41:16;;;;;;;10.85;4.15;;;19.60;99.90;;;;;;4954718;28;20212;-73
2023/10/09 08:43:50;;;;;;;8.13;3.65;;;19.70;99.90;;;;;;4954679;29;20709;-73
2023/10/09 08:46:20;;;;;;;8.93;3.47;;;20.00;99.90;;;;;;4954650;28;20232;-73
2023/10/09 08:48:48;;;;;;;8.60;3.50;;;20.10;99.90;;;;;;4954568;28;20694;-73
2023/10/09 08:51:16;;;;;;;7.70;3.67;;;20.00;99.90;;;;;;4954565;29;20655;-74
2023/10/09 08:53:45;;;;;;;6.10;3.78;;;20.00;99.90;;;;;;4947846;28;20236;-73
2023/10/09 08:56:14;;;;;;;5.68;3.13;;;20.10;99.90;;;;;;4952854;28;20240;-72
2023/10/09 08:58:41;;;;;;;8.13;4.00;;;20.00;99.90;;;;;;4952977;28;20208;-72
2023/10/09 09:01:08;;;;;;;6.63;3.25;;;19.90;99.90;;;;;;4952534;28;20294;-73
2023/10/09 09:03:44;;;;;;;8.85;3.95;;;20.00;99.90;;;;;;4954944;28;20243;-72
2023/10/09 09:06:11;;;;;;;9.27;3.35;;;20.10;99.90;;;;;;4948672;28;20255;-72
2023/10/09 09:08:39;;;;;;;7.63;3.92;;;20.20;99.90;;;;;;4948125;29;20204;-73
2023/10/09 09:11:16;;;;;;;6.60;3.25;;;20.20;99.90;;;;;;4953400;28;20288;-72
2023/10/09 09:13:49;;;;;;;6.93;3.15;;;20.40;99.90;;;;;;4950248;29;20267;-74
2023/10/09 09:16:16;;;;;;;6.55;3.63;;;20.60;99.90;;;;;;4951167;29;20240;-73
2023/10/09 09:19:03;;;;;;;9.88;3.58;;;20.60;99.90;;;;;;4941740;29;20707;-74
2023/10/09 09:21:37;;;;;;;7.15;3.00;;;20.60;99.90;;;;;;4956360;28;20610;-73
2023/10/09 09:24:15;;;;;;;6.68;3.35;;;20.70;99.90;;;;;;4956516;29;20203;-72
2023/10/09 09:26:45;;;;;;;7.47;3.10;;;20.70;99.90;;;;;;4956061;28;20314;-73
2023/10/09 09:29:17;;;;;;;7.60;3.38;;;20.80;99.90;;;;;;4955999;29;20562;-72
2023/10/09 09:31:54;;;;;;;5.68;3.42;;;20.80;99.90;;;;;;4956641;29;20216;-73
2023/10/09 09:34:25;;;;;;;7.75;3.75;;;20.80;99.90;;;;;;4937382;29;20227;-73
2023/10/09 09:36:54;;;;;;;11.65;3.53;;;20.80;99.90;;;;;;4937379;29;20334;-73
2023/10/09 09:39:29;;;;;;;9.07;3.88;;;20.80;99.90;;;;;;4955590;29;20372;-73
2023/10/09 09:42:03;;;;;;;7.50;3.13;;;20.80;99.90;;;;;;4956387;28;20286;-72
2023/10/09 09:44:33;;;;;;;12.57;3.60;;;20.80;99.90;;;;;;4955919;29;20219;-75
2023/10/09 09:47:01;;;;;;;6.80;3.60;;;20.80;99.90;;;;;;4949413;29;20449;-73
2023/10/09 09:49:32;;;;;;;7.35;3.35;;;20.90;99.90;;;;;;4942879;29;20235;-73
2023/10/09 09:52:09;;;;;;;6.88;3.75;;;21.00;99.90;;;;;;4955018;28;20201;-72
2023/10/09 09:54:37;;;;;;;8.43;4.07;;;21.00;99.90;;;;;;4956065;28;20228;-72
2023/10/09 09:57:08;;;;;;;6.80;3.58;;;21.10;99.90;;;;;;4949957;29;20243;-72
2023/10/09 09:59:49;;;;;;;8.40;4.22;;;21.30;99.90;;;;;;4940604;29;20224;-71
2023/10/09 10:02:22;;;;;;;10.05;4.43;;;21.40;99.90;;;;;;4946848;29;20208;-71
2023/10/09 10:04:56;;;;;;;10.30;3.92;;;21.40;99.90;;;;;;4956398;28;20322;-71
2023/10/09 10:07:25;;;;;;;8.18;3.83;;;21.40;99.90;;;;;;4957012;28;20219;-72
2023/10/09 10:09:54;;;;;;;6.57;3.55;;;21.20;99.90;;;;;;4958181;28;20220;-71
2023/10/09 10:13:02;;;;;;;6.25;3.45;;;21.20;99.90;;;;;;4955274;28;20211;-72
2023/10/09 10:16:20;;;;;;;8.65;3.10;;;21.50;99.90;;;;;;4938981;28;20232;-73
2023/10/09 10:18:59;;;;;;;7.10;3.55;;;21.60;99.90;;;;;;4965901;29;20316;-72
2023/10/09 10:21:39;;;;;;;4.60;3.03;;;21.30;99.90;;;;;;4958308;29;20247;-72
2023/10/09 10:24:55;;;;;;;9.43;3.83;;;21.30;99.90;;;;;;4954770;29;20239;-74
2023/10/09 10:27:26;;;;;;;6.75;3.65;;;21.40;99.90;;;;;;4955606;28;20312;-71
2023/10/09 10:30:31;;;;;;;8.30;3.85;;;21.50;99.90;;;;;;4955596;28;20204;-70
2023/10/09 10:33:09;;;;;;;8.32;3.58;;;21.20;99.90;;;;;;4953935;28;20215;-71
2023/10/09 10:35:45;;;;;;;8.57;3.85;;;21.20;99.90;;;;;;4943858;29;20261;-70
2023/10/09 10:38:32;;;;;;;8.05;3.65;;;21.30;99.90;;;;;;4950075;28;20583;-76
2023/10/09 10:41:12;;;;;;;6.03;3.08;;;21.40;99.90;;;;;;4957143;28;20216;-76
2023/10/09 10:43:54;;;;;;;7.53;3.72;;;21.40;99.90;;;;;;4955229;29;20204;-76
2023/10/09 10:46:37;;;;;;;9.10;3.97;;;21.60;99.90;;;;;;4955387;29;20593;-76
2023/10/09 10:49:16;;;;;;;5.55;3.40;;;21.60;99.90;;;;;;4937545;29;20209;-76
2023/10/09 10:51:48;;;;;;;6.57;3.33;;;21.70;99.90;;;;;;4936919;29;20209;-75
2023/10/09 10:57:28;;;;;;;7.30;3.08;;;22.00;99.90;;;;;;4956993;28;20228;-76
2023/10/09 11:00:12;;;;;;;6.97;3.47;;;22.10;99.90;;;;;;4959886;28;20215;-75
2023/10/09 11:02:41;;;;;;;6.45;3.30;;;22.10;99.90;;;;;;4948752;29;20215;-75
2023/10/09 11:07:52;;;;;;;7.78;3.55;;;22.20;99.90;;;;;;4952679;28;20290;-74
2023/10/09 11:10:29;;;;;;;6.68;3.40;;;22.10;99.90;;;;;;4956065;28;20212;-75
2023/10/09 11:15:46;;;;;;;8.45;3.65;;;22.00;99.90;;;;;;4954572;29;20226;-75
2023/10/09 11:21:22;;;;;;;10.32;4.50;;;22.20;99.90;;;;;;4956947;29;20235;-77
2023/10/09 11:23:57;;;;;;;8.35;3.35;;;22.30;99.90;;;;;;4955566;28;20200;-76
2023/10/09 11:26:27;;;;;;;7.03;3.50;;;22.40;99.90;;;;;;4955231;28;20239;-77
2023/10/09 11:29:15;;;;;;;6.47;3.45;;;22.40;99.90;;;;;;4952679;28;20208;-75
2023/10/09 11:31:45;;;;;;;7.70;3.28;;;22.40;99.90;;;;;;4956399;28;20211;-71
2023/10/09 11:34:28;;;;;;;7.80;3.58;;;22.60;99.90;;;;;;4955336;28;20539;-73
2023/10/09 11:36:57;;;;;;;6.93;3.30;;;22.60;99.90;;;;;;4952151;28;20228;-74
2023/10/09 11:39:50;;;;;;;5.75;2.95;;;22.70;99.90;;;;;;4955686;28;20214;-74
2023/10/09 11:42:35;;;;;;;7.80;3.20;;;22.80;99.90;;;;;;4955205;28;20212;-74
2023/10/09 11:45:19;;;;;;;7.57;3.08;;;23.00;99.90;;;;;;4954929;29;20255;-73
2023/10/09 11:47:54;;;;;;;10.32;3.45;;;22.90;99.90;;;;;;4949757;28;20204;-73
2023/10/09 11:50:22;;;;;;;6.82;2.80;;;22.90;99.90;;;;;;4951506;28;20782;-73
2023/10/09 11:53:08;;;;;;;7.40;2.95;;;23.00;99.90;;;;;;4954925;29;20239;-76
2023/10/09 11:55:37;;;;;;;5.82;2.88;;;23.00;99.90;;;;;;4954742;28;20263;-75
2023/10/09 11:58:06;;;;;;;7.30;3.10;;;22.90;99.90;;;;;;4954682;28;20322;-72
2023/10/09 12:00:44;;;;;;;6.85;3.22;;;22.90;99.90;;;;;;4948609;28;20204;-72
2023/10/09 12:03:16;;;;;;;6.60;3.47;;;22.80;99.90;;;;;;4935802;29;20619;-72
2023/10/09 12:05:44;;;;;;;6.20;3.13;;;23.00;99.90;;;;;;4943460;28;20224;-73
2023/10/09 12:08:15;;;;;;;7.75;3.05;;;23.00;99.90;;;;;;4955294;28;20241;-73
2023/10/09 12:10:43;;;;;;;5.93;2.50;;;23.00;99.90;;;;;;4954690;28;20199;-73
2023/10/09 12:13:12;;;;;;;7.80;3.70;;;23.00;99.90;;;;;;4954929;28;20211;-76
2023/10/09 12:15:39;;;;;;;6.55;3.53;;;23.10;99.90;;;;;;4954665;28;20259;-75
2023/10/09 12:18:15;;;;;;;5.65;2.88;;;23.20;99.90;;;;;;4954730;28;20303;-75
2023/10/09 12:20:48;;;;;;;9.27;3.22;;;23.30;99.90;;;;;;4952766;28;20677;-75
2023/10/09 12:23:15;;;;;;;8.90;3.20;;;23.20;99.90;;;;;;4955130;28;20215;-72
2023/10/09 12:25:44;;;;;;;8.02;3.55;;;23.10;99.90;;;;;;4954811;28;20247;-76
2023/10/09 12:28:13;;;;;;;6.55;3.00;;;23.20;99.90;;;;;;4954390;28;20543;-72
2023/10/09 12:30:41;;;;;;;6.28;3.20;;;23.30;99.90;;;;;;4952909;28;20224;-73
2023/10/09 12:33:08;;;;;;;6.68;3.67;;;23.20;99.90;;;;;;4954949;28;20204;-74
2023/10/09 12:35:38;;;;;;;6.35;3.22;;;23.10;99.90;;;;;;4954704;28;20275;-76
2023/10/09 12:38:09;;;;;;;8.48;3.35;;;23.10;99.90;;;;;;4954312;28;20349;-75
2023/10/09 12:40:36;;;;;;;7.43;3.45;;;23.20;99.90;;;;;;4952368;28;20215;-75
2023/10/09 12:43:04;;;;;;;5.13;3.03;;;23.20;99.90;;;;;;4954587;28;20214;-75
2023/10/09 12:45:35;;;;;;;7.88;3.08;;;23.10;99.90;;;;;;4954364;28;20303;-73
2023/10/09 12:48:08;;;;;;;6.35;3.10;;;23.20;99.90;;;;;;4952546;29;20275;-74
2023/10/09 12:50:41;;;;;;;7.45;3.10;;;23.40;99.90;;;;;;4939009;29;20291;-76
2023/10/09 12:53:08;;;;;;;7.43;3.30;;;23.50;99.90;;;;;;4954796;28;20263;-75
2023/10/09 12:55:40;;;;;;;4.95;2.65;;;23.60;99.90;;;;;;4954572;28;20270;-76
2023/10/09 12:58:08;;;;;;;5.85;2.88;;;23.40;99.90;;;;;;4954496;29;20576;-75
2023/10/09 13:00:43;;;;;;;5.78;3.25;;;23.40;99.90;;;;;;4954329;28;20566;-75
2023/10/09 13:03:17;;;;;;;6.18;3.20;;;23.40;99.90;;;;;;4955017;28;20552;-76
2023/10/09 13:05:51;;;;;;;8.40;3.33;;;23.50;99.90;;;;;;4954507;28;20283;-74
2023/10/09 13:08:21;;;;;;;7.32;3.15;;;23.40;99.90;;;;;;4954841;28;20664;-76
2023/10/09 13:10:58;;;;;;;6.05;3.00;;;23.30;99.90;;;;;;4954095;28;20671;-76
2023/10/09 13:13:39;;;;;;;7.95;2.67;;;23.30;99.90;;;;;;4954385;29;20215;-72
2023/10/09 13:16:11;;;;;;;7.15;2.80;;;23.20;99.90;;;;;;4953974;28;20231;-75
2023/10/09 13:18:38;;;;;;;6.25;3.20;;;23.30;99.90;;;;;;4950489;29;20719;-70
2023/10/09 13:21:05;;;;;;;4.93;2.72;;;23.40;99.90;;;;;;4953485;29;20205;-70
2023/10/09 13:23:38;;;;;;;8.00;3.45;;;23.30;99.90;;;;;;4952877;29;20254;-72
2023/10/09 13:26:17;;;;;;;6.63;3.40;;;23.30;99.90;;;;;;4951925;29;20248;-72
2023/10/09 13:28:46;;;;;;;5.72;3.22;;;23.30;99.90;;;;;;4949962;29;20232;-77
2023/10/09 13:31:15;;;;;;;9.82;3.70;;;23.30;99.90;;;;;;4950701;29;20630;-73
2023/10/09 13:33:43;;;;;;;7.45;3.25;;;23.20;99.90;;;;;;4952573;29;20227;-72
2023/10/09 13:36:17;;;;;;;6.75;3.40;;;23.10;99.90;;;;;;4952692;29;20268;-70
2023/10/09 13:38:44;;;;;;;7.47;3.55;;;23.20;99.90;;;;;;4935032;29;20331;-73
2023/10/09 13:41:14;;;;;;;7.30;3.30;;;23.20;99.90;;;;;;4934845;29;20232;-71
2023/10/09 13:43:43;;;;;;;6.88;3.75;;;23.20;99.90;;;;;;4937184;29;20232;-70
2023/10/09 13:46:11;;;;;;;9.90;3.55;;;23.10;99.90;;;;;;4953676;29;20319;-73
2023/10/09 13:48:41;;;;;;;10.13;4.05;;;23.10;99.90;;;;;;4952652;29;20200;-71
2023/10/09 13:51:13;;;;;;;9.15;3.92;;;23.10;99.90;;;;;;4956677;28;20212;-70
2023/10/09 13:53:44;;;;;;;6.30;3.50;;;23.20;99.90;;;;;;4958793;28;20204;-70
2023/10/09 13:56:14;;;;;;;8.95;3.75;;;23.10;99.90;;;;;;4967457;23;20339;-76
2023/10/09 13:58:42;;;;;;;7.40;3.17;;;23.00;99.90;;;;;;4953767;28;20773;-79
2023/10/09 14:01:10;;;;;;;8.07;3.40;;;23.00;99.90;;;;;;4957200;29;20286;-76
2023/10/09 14:03:39;;;;;;;5.95;3.58;;;23.00;99.90;;;;;;4956749;28;20677;-80
2023/10/09 14:06:12;;;;;;;9.35;3.38;;;23.00;99.90;;;;;;4956654;28;20617;-77
2023/10/09 14:08:42;;;;;;;9.73;3.67;;;22.90;99.90;;;;;;4953018;28;21521;-79
2023/10/09 14:11:13;;;;;;;6.78;3.40;;;22.70;99.90;;;;;;4938407;29;20213;-78
2023/10/09 14:13:40;;;;;;;6.32;3.85;;;22.90;99.90;;;;;;4944035;28;20201;-75
2023/10/09 14:16:20;;;;;;;9.93;3.70;;;23.10;99.90;;;;;;4946923;29;20783;-73
2023/10/09 14:18:53;;;;;;;5.55;3.22;;;23.10;99.90;;;;;;4957135;28;20239;-73
2023/10/09 14:21:21;;;;;;;8.70;3.47;;;23.20;99.90;;;;;;4956733;29;20694;-75
2023/10/09 14:23:48;;;;;;;8.07;3.60;;;23.20;99.90;;;;;;4950108;28;20284;-74
2023/10/09 14:26:18;;;;;;;7.47;3.95;;;23.40;99.90;;;;;;4937371;29;20652;-74
2023/10/09 14:28:45;;;;;;;7.50;3.53;;;23.30;99.90;;;;;;4937157;29;20225;-75
2023/10/09 14:31:14;;;;;;;8.45;3.63;;;23.30;99.90;;;;;;4937547;29;20212;-74
2023/10/09 14:33:43;;;;;;;7.78;3.92;;;23.30;99.90;;;;;;4937187;29;20236;-74
2023/10/09 14:36:14;;;;;;;7.57;3.60;;;23.30;99.90;;;;;;4937449;29;20283;-75
2023/10/09 14:38:42;;;;;;;6.95;3.53;;;23.30;99.90;;;;;;4937578;29;20232;-75
2023/10/09 14:41:11;;;;;;;6.03;3.30;;;23.30;99.90;;;;;;4937611;29;20221;-74
2023/10/09 14:43:38;;;;;;;8.90;4.07;;;23.30;99.90;;;;;;4937430;29;20682;-75
2023/10/09 14:46:10;;;;;;;7.13;3.75;;;23.20;99.90;;;;;;4937418;29;20284;-75
2023/10/09 14:48:38;;;;;;;7.38;3.92;;;23.30;99.90;;;;;;4937621;29;20264;-75
2023/10/09 14:51:06;;;;;;;5.75;3.00;;;23.10;99.90;;;;;;4937301;29;20247;-74
2023/10/09 14:53:35;;;;;;;5.75;3.53;;;23.00;99.90;;;;;;4937406;29;20574;-74
2023/10/09 14:56:03;;;;;;;7.32;4.15;;;23.00;99.90;;;;;;4937050;29;20348;-74
2023/10/09 14:58:32;;;;;;;8.45;3.58;;;22.90;99.90;;;;;;4937013;29;20260;-74
2023/10/09 15:01:09;;;;;;;9.05;3.85;;;22.90;99.90;;;;;;4936646;29;20215;-74
2023/10/09 15:03:38;;;;;;;6.82;3.70;;;22.70;99.90;;;;;;4936914;29;20211;-74
2023/10/09 15:06:08;;;;;;;7.03;3.60;;;22.70;99.90;;;;;;4936759;29;20243;-75
2023/10/09 15:08:36;;;;;;;7.72;3.55;;;22.70;99.90;;;;;;4937069;29;20205;-74
2023/10/09 15:11:03;;;;;;;6.10;3.45;;;22.80;99.90;;;;;;4937159;29;20251;-74
2023/10/09 15:13:30;;;;;;;5.28;3.13;;;22.90;99.90;;;;;;4937059;29;20291;-75
2023/10/09 15:15:58;;;;;;;9.38;3.47;;;22.90;99.90;;;;;;4936973;29;20235;-75
2023/10/09 15:18:25;;;;;;;8.35;3.60;;;22.80;99.90;;;;;;4937321;29;20237;-74
2023/10/09 15:20:52;;;;;;;8.00;3.20;;;22.70;99.90;;;;;;4937142;29;20244;-74
2023/10/09 15:23:20;;;;;;;8.48;3.88;;;22.60;99.90;;;;;;4937016;29;20621;-75
2023/10/09 15:25:51;;;;;;;6.75;3.50;;;22.50;99.90;;;;;;4937011;29;20229;-76
2023/10/09 15:28:19;;;;;;;5.38;3.05;;;22.20;99.90;;;;;;4936939;29;20213;-76
2023/10/09 15:30:47;;;;;;;6.80;3.90;;;22.10;99.90;;;;;;4936577;29;20248;-75
2023/10/09 15:33:16;;;;;;;8.27;4.25;;;22.00;99.90;;;;;;4942453;28;20203;-75
2023/10/09 15:35:45;;;;;;;7.47;3.53;;;21.90;99.90;;;;;;4974694;28;20223;-71
2023/10/09 15:38:13;;;;;;;7.63;3.88;;;21.90;99.90;;;;;;4974850;28;20290;-75
2023/10/09 15:40:43;;;;;;;9.43;4.00;;;21.70;99.90;;;;;;4975291;28;20211;-75
2023/10/09 15:43:14;;;;;;;8.38;3.75;;;21.70;99.90;;;;;;4956930;28;20624;-76
2023/10/09 15:45:47;;;;;;;11.13;3.90;;;21.70;99.90;;;;;;4944672;29;20223;-74
2023/10/09 15:48:15;;;;;;;7.57;3.67;;;21.70;99.90;;;;;;4945098;28;20660;-74
2023/10/09 15:50:48;;;;;;;8.18;3.42;;;21.70;99.90;;;;;;4944097;29;20208;-75
2023/10/09 15:53:16;;;;;;;9.07;3.95;;;21.60;99.90;;;;;;4944139;28;21076;-72
2023/10/09 15:55:44;;;;;;;8.48;3.35;;;21.50;99.90;;;;;;4945227;28;20263;-73
2023/10/09 15:58:13;;;;;;;6.80;3.08;;;21.40;99.90;;;;;;4946062;28;20304;-74
2023/10/09 16:00:45;;;;;;;6.45;3.20;;;21.40;99.90;;;;;;4944452;28;20378;-74
2023/10/09 16:03:13;;;;;;;6.53;3.30;;;21.40;99.90;;;;;;4944611;28;20286;-74
2023/10/09 16:05:41;;;;;;;6.32;3.33;;;21.30;99.90;;;;;;4944165;28;20228;-72
2023/10/09 16:08:08;;;;;;;9.23;4.03;;;21.20;99.90;;;;;;4945122;28;20236;-74
2023/10/09 16:10:35;;;;;;;7.78;3.40;;;21.10;99.90;;;;;;4946096;28;20284;-74
2023/10/09 16:13:04;;;;;;;7.22;3.55;;;21.10;99.90;;;;;;4944452;29;20201;-73
2023/10/09 16:15:33;;;;;;;7.10;2.97;;;21.00;99.90;;;;;;4944308;28;20223;-74
2023/10/09 16:18:03;;;;;;;7.78;3.63;;;21.00;99.90;;;;;;4944217;28;20212;-74
2023/10/09 16:20:32;;;;;;;7.78;2.95;;;20.90;99.90;;;;;;4944302;28;20211;-74
2023/10/09 16:23:04;;;;;;;6.70;3.42;;;20.90;99.90;;;;;;4944295;29;20276;-74
2023/10/09 16:25:33;;;;;;;7.68;3.45;;;20.80;99.90;;;;;;4944131;29;20231;-72
2023/10/09 16:28:02;;;;;;;8.95;3.40;;;20.60;99.90;;;;;;4949521;28;20239;-74
2023/10/09 16:30:29;;;;;;;11.20;3.05;;;20.50;99.90;;;;;;4954941;28;20212;-74
2023/10/09 16:33:00;;;;;;;5.65;2.72;;;20.30;99.90;;;;;;4955032;28;20212;-73
2023/10/09 16:35:27;;;;;;;8.25;3.00;;;20.20;99.90;;;;;;4954936;28;20231;-74
2023/10/09 16:37:54;;;;;;;6.68;3.13;;;20.10;99.90;;;;;;4954610;28;20235;-73
2023/10/09 16:40:21;;;;;;;6.43;2.90;;;20.10;99.90;;;;;;4954215;28;20267;-74
2023/10/09 16:42:49;;;;;;;5.13;2.70;;;20.00;99.90;;;;;;4954932;28;20204;-74
2023/10/09 16:45:17;;;;;;;10.25;3.63;;;20.00;99.90;;;;;;4954822;28;20228;-74
2023/10/09 16:47:46;;;;;;;8.50;3.55;;;19.90;99.90;;;;;;4954904;28;20253;-74
2023/10/09 16:50:16;;;;;;;7.75;3.50;;;19.90;99.90;;;;;;4954486;28;20256;-74
2023/10/09 16:52:44;;;;;;;7.35;3.78;;;19.80;99.90;;;;;;4953239;28;20212;-71
2023/10/09 16:55:11;;;;;;;8.40;3.60;;;19.70;99.90;;;;;;4944267;28;20700;-72
2023/10/09 16:57:40;;;;;;;8.43;3.80;;;19.60;99.90;;;;;;4946332;28;20208;-71
2023/10/09 17:00:12;;;;;;;4.90;3.15;;;19.50;99.90;;;;;;4941119;28;20239;-74
2023/10/09 17:02:41;;;;;;;8.10;3.70;;;19.40;99.90;;;;;;4944118;28;20243;-74
2023/10/09 17:05:12;;;;;;;6.70;3.38;;;19.40;99.90;;;;;;4945213;28;20232;-74
2023/10/09 17:07:44;;;;;;;6.13;2.80;;;19.30;99.90;;;;;;4934896;28;20209;-74
2023/10/09 17:10:15;;;;;;;8.82;3.03;;;19.20;99.90;;;;;;4941422;28;20220;-74
2023/10/09 17:12:45;;;;;;;6.90;3.28;;;19.20;99.90;;;;;;4945045;28;20200;-73
2023/10/09 17:15:14;;;;;;;6.38;2.67;;;19.10;99.90;;;;;;4937410;28;20319;-74
2023/10/09 17:17:45;;;;;;;6.63;2.83;;;18.90;99.90;;;;;;4934961;29;20216;-74
2023/10/09 17:20:13;;;;;;;6.05;3.20;;;18.80;99.90;;;;;;4935023;29;20251;-73
2023/10/09 17:22:43;;;;;;;4.90;2.90;;;18.70;99.90;;;;;;4935244;29;20664;-73
2023/10/09 17:25:12;;;;;;;5.20;2.80;;;18.70;99.90;;;;;;4937380;29;20279;-74
2023/10/09 17:27:40;;;;;;;8.25;3.10;;;18.70;99.90;;;;;;4939064;29;20698;-71
2023/10/09 17:30:09;;;;;;;6.05;2.85;;;18.60;99.90;;;;;;4938980;29;20215;-70
2023/10/09 17:32:37;;;;;;;7.45;3.33;;;18.60;99.90;;;;;;4938935;29;20248;-71
2023/10/09 17:35:08;;;;;;;9.45;2.97;;;18.50;99.90;;;;;;4938540;29;20576;-70
2023/10/09 17:37:36;;;;;;;4.35;2.60;;;18.50;99.90;;;;;;4938431;29;20307;-72
2023/10/09 17:40:07;;;;;;;6.60;2.85;;;18.40;99.90;;;;;;4938447;29;20268;-71
2023/10/09 17:42:35;;;;;;;6.85;2.97;;;18.40;99.90;;;;;;4938475;29;20204;-72
2023/10/09 17:45:04;;;;;;;5.28;2.72;;;18.30;99.90;;;;;;4938252;29;20711;-72
2023/10/09 17:47:34;;;;;;;6.53;2.95;;;18.30;99.90;;;;;;4938588;29;20272;-72
2023/10/09 17:50:02;;;;;;;7.28;3.05;;;18.10;99.90;;;;;;4938191;29;20209;-71
2023/10/09 17:52:28;;;;;;;7.78;3.47;;;18.00;99.90;;;;;;4938514;29;20269;-73
2023/10/09 17:54:56;;;;;;;6.20;3.70;;;18.00;99.90;;;;;;4938338;29;20747;-71
2023/10/09 17:57:24;;;;;;;7.78;2.90;;;18.00;99.90;;;;;;4938384;29;20220;-72
2023/10/09 17:59:55;;;;;;;5.30;2.92;;;18.00;99.90;;;;;;4937927;29;20327;-72
2023/10/09 18:02:22;;;;;;;4.97;2.67;;;17.90;99.90;;;;;;4938559;29;20208;-72
2023/10/09 18:04:49;;;;;;;7.65;3.50;;;17.80;99.90;;;;;;4938254;29;20239;-72
2023/10/09 18:07:18;;;;;;;6.25;3.20;;;17.80;99.90;;;;;;4938316;29;20300;-72
2023/10/09 18:09:47;;;;;;;9.82;3.40;;;17.80;99.90;;;;;;4944905;28;20199;-72
2023/10/09 18:12:14;;;;;;;14.98;5.38;;;17.80;99.90;;;;;;4976360;28;20207;-72
2023/10/09 18:14:44;;;;;;;8.10;3.83;;;17.70;99.90;;;;;;4976041;28;20235;-71
2023/10/09 18:17:14;;;;;;;8.90;3.65;;;17.70;99.90;;;;;;4976490;28;20317;-72
2023/10/09 18:19:43;;;;;;;8.70;3.75;;;17.70;99.90;;;;;;4975764;28;20241;-72
2023/10/09 18:22:12;;;;;;;8.32;3.40;;;17.70;99.90;;;;;;4975968;28;20215;-72
2023/10/09 18:24:40;;;;;;;6.25;3.00;;;17.70;99.90;;;;;;4976708;28;20223;-72
2023/10/09 18:27:08;;;;;;;5.38;3.00;;;17.70;99.90;;;;;;4976161;28;20297;-72
2023/10/09 18:29:35;;;;;;;6.73;3.10;;;17.60;99.90;;;;;;4976176;28;20213;-73
2023/10/09 18:32:03;;;;;;;8.70;3.40;;;17.50;99.90;;;;;;4958787;28;20252;-71
2023/10/09 18:34:30;;;;;;;7.63;3.30;;;17.50;99.90;;;;;;4946303;28;20312;-72
2023/10/09 18:36:57;;;;;;;7.80;3.37;;;17.40;99.90;;;;;;4945014;28;20250;-72
2023/10/09 18:39:24;;;;;;;6.65;3.38;;;17.40;99.90;;;;;;4937527;29;20272;-72
2023/10/09 18:41:53;;;;;;;5.93;2.87;;;17.30;99.90;;;;;;4937629;29;20257;-71
2023/10/09 18:44:20;;;;;;;5.57;2.72;;;17.20;99.90;;;;;;4937573;29;20209;-72
2023/10/09 18:46:48;;;;;;;7.43;3.10;;;17.20;99.90;;;;;;4937965;29;20244;-72
2023/10/09 18:49:18;;;;;;;8.43;3.70;;;17.10;99.90;;;;;;4937368;29;20549;-72
2023/10/09 18:51:46;;;;;;;6.80;3.63;;;17.10;99.90;;;;;;4937529;29;20267;-72
2023/10/09 18:54:14;;;;;;;7.33;3.80;;;17.00;99.90;;;;;;4937765;29;20219;-72
2023/10/09 18:56:42;;;;;;;7.67;3.27;;;17.00;99.90;;;;;;4937427;29;20315;-72
2023/10/09 18:59:09;;;;;;;5.37;3.20;;;16.90;99.90;;;;;;4937322;29;20319;-72
2023/10/09 19:01:37;;;;;;;6.53;3.00;;;16.90;99.90;;;;;;4936634;29;20236;-72
2023/10/09 19:04:07;;;;;;;6.70;3.43;;;16.90;99.90;;;;;;4937352;29;20231;-72
2023/10/09 19:06:37;;;;;;;4.10;2.57;;;16.90;99.90;;;;;;4937410;29;20208;-73
2023/10/09 19:09:05;;;;;;;8.63;3.10;;;16.90;99.90;;;;;;4937099;29;20300;-72
2023/10/09 19:11:32;;;;;;;4.03;2.77;;;16.80;99.90;;;;;;4937373;29;20260;-71
2023/10/09 19:14:00;;;;;;;5.60;2.60;;;16.80;99.90;;;;;;4936333;29;20624;-72
2023/10/09 19:16:29;;;;;;;5.97;2.73;;;16.70;99.90;;;;;;4936199;29;20316;-72
2023/10/09 19:19:04;;;;;;;5.10;2.83;;;16.60;99.90;;;;;;4936924;29;20216;-72
2023/10/09 19:21:32;;;;;;;7.77;3.00;;;16.60;99.90;;;;;;4936868;29;20209;-72
2023/10/09 19:24:00;;;;;;;5.60;2.80;;;16.60;99.90;;;;;;4937065;29;20213;-72
2023/10/09 19:26:33;;;;;;;9.67;2.90;;;16.60;99.90;;;;;;4936259;29;20268;-72
2023/10/09 19:29:01;;;;;;;7.37;3.23;;;16.60;99.90;;;;;;4936466;29;20228;-71
2023/10/09 19:31:32;;;;;;;9.53;2.80;;;16.50;99.90;;;;;;4936586;29;20240;-72
2023/10/09 19:33:59;;;;;;;7.87;3.20;;;16.40;99.90;;;;;;4936938;29;20215;-72
2023/10/09 19:36:26;;;;;;;6.73;2.87;;;16.40;99.90;;;;;;4936541;29;20256;-71
2023/10/09 19:38:54;;;;;;;5.33;2.60;;;16.30;99.90;;;;;;4936537;29;20219;-72
2023/10/09 19:41:23;;;;;;;4.30;2.47;;;16.30;99.90;;;;;;4936299;29;20240;-72
2023/10/09 19:43:51;;;;;;;4.97;2.50;;;16.20;99.90;;;;;;4936372;29;20219;-72
2023/10/09 19:46:18;;;;;;;3.83;2.27;;;16.10;99.90;;;;;;4940809;28;20735;-72
2023/10/09 19:48:46;;;;;;;5.70;3.00;;;16.10;99.90;;;;;;4935776;28;20233;-71
2023/10/09 19:51:15;;;;;;;6.47;3.10;;;16.00;99.90;;;;;;4935967;29;20255;-71
2023/10/09 19:53:43;;;;;;;8.73;2.87;;;16.10;99.90;;;;;;4936322;29;20219;-70
2023/10/09 19:56:10;;;;;;;9.07;2.47;;;16.10;99.90;;;;;;4962020;23;20314;-74
2023/10/09 19:58:39;;;;;;;5.40;2.63;;;16.10;99.90;;;;;;4955921;28;20267;-74
2023/10/09 20:01:08;;;;;;;5.40;3.10;;;16.10;99.90;;;;;;4955637;28;20235;-73
2023/10/09 20:03:35;;;;;;;7.47;3.30;;;16.10;99.90;;;;;;4955437;28;20243;-74
2023/10/09 20:06:04;;;;;;;5.07;3.10;;;16.10;99.90;;;;;;4955369;28;20701;-75
2023/10/09 20:08:33;;;;;;;5.07;2.97;;;16.10;99.90;;;;;;4955472;28;20299;-75
2023/10/09 20:11:07;;;;;;;5.83;3.00;;;16.10;99.90;;;;;;4955162;28;20215;-73
2023/10/09 20:13:34;;;;;;;6.13;3.23;;;15.90;99.90;;;;;;4961879;28;20862;-75
2023/10/09 20:16:03;;;;;;;7.90;3.10;;;16.00;99.90;;;;;;4974354;28;20281;-74
2023/10/09 20:18:30;;;;;;;6.07;3.37;;;15.90;99.90;;;;;;4974041;28;20243;-74
2023/10/09 20:21:00;;;;;;;5.87;3.20;;;15.90;99.90;;;;;;4974307;28;20246;-75
2023/10/09 20:23:27;;;;;;;5.03;3.10;;;15.90;99.90;;;;;;4974360;28;20211;-75
2023/10/09 20:26:01;;;;;;;4.80;2.93;;;15.90;99.90;;;;;;4954938;28;20772;-74
2023/10/09 20:28:28;;;;;;;5.60;2.73;;;15.90;99.90;;;;;;4936087;29;20398;-75
2023/10/09 20:31:01;;;;;;;6.87;3.10;;;15.90;99.90;;;;;;4936280;29;20247;-75
2023/10/09 20:33:33;;;;;;;7.60;3.47;;;15.90;99.90;;;;;;4935929;29;20311;-74
2023/10/09 20:36:09;;;;;;;5.33;2.90;;;15.80;99.90;;;;;;4935733;29;20235;-74
2023/10/09 20:38:39;;;;;;;5.93;3.63;;;15.80;99.90;;;;;;4935573;29;20256;-74
2023/10/09 20:41:07;;;;;;;5.10;3.07;;;15.80;99.90;;;;;;4935917;29;20243;-75
2023/10/09 20:43:34;;;;;;;8.03;3.23;;;15.80;99.90;;;;;;4936037;29;20200;-74
2023/10/09 20:46:03;;;;;;;5.70;3.30;;;15.60;99.90;;;;;;4935106;29;20288;-75
2023/10/09 20:48:31;;;;;;;6.37;3.10;;;15.70;99.90;;;;;;4935374;29;20746;-75
2023/10/09 20:50:59;;;;;;;5.50;3.27;;;15.70;99.90;;;;;;4935424;29;20251;-74
2023/10/09 20:53:27;;;;;;;7.47;2.87;;;15.60;99.90;;;;;;4936342;29;20624;-74
2023/10/09 20:55:55;;;;;;;5.07;3.00;;;15.60;99.90;;;;;;4935457;29;20244;-74
2023/10/09 20:58:24;;;;;;;6.27;3.20;;;15.60;99.90;;;;;;4935370;29;20213;-75
2023/10/09 21:00:51;;;;;;;7.20;2.57;;;15.60;99.90;;;;;;4939246;29;20236;-74
2023/10/09 21:03:18;;;;;;;4.27;2.90;;;15.50;99.90;;;;;;4939843;29;20240;-74
2023/10/09 21:05:48;;;;;;;6.03;3.00;;;15.50;99.90;;;;;;4940003;29;20275;-74
2023/10/09 21:08:15;;;;;;;7.60;3.53;;;15.50;99.90;;;;;;4939809;29;20205;-74
2023/10/09 21:10:42;;;;;;;8.07;3.40;;;15.40;99.90;;;;;;4938250;28;20457;-73
